sensor_id;sensor_type;location;lat;lon;timestamp;pressure;altitude;pressure_sealevel;temperature;humidity
75855;BME280;64502;59.976;30.316;2023-07-28T00:01:30;100082.50;;;14.57;79.48
75855;BME280;64502;59.976;30.316;2023-07-28T00:03:55;100079.84;;;14.57;79.31
75855;BME280;64502;59.976;30.316;2023-07-28T00:06:23;100073.56;;;14.58;79.57
75855;BME280;64502;59.976;30.316;2023-07-28T00:08:48;100074.72;;;14.65;79.11
75855;BME280;64502;59.976;30.316;2023-07-28T00:11:14;100070.00;;;14.69;77.44
75855;BME280;64502;59.976;30.316;2023-07-28T00:13:41;100064.78;;;14.68;77.84
75855;BME280;64502;59.976;30.316;2023-07-28T00:16:08;100070.97;;;14.68;76.53
75855;BME280;64502;59.976;30.316;2023-07-28T00:18:33;100057.97;;;14.65;76.64
75855;BME280;64502;59.976;30.316;2023-07-28T00:20:59;100054.84;;;14.60;77.29
75855;BME280;64502;59.976;30.316;2023-07-28T00:23:25;100053.16;;;14.59;76.72
75855;BME280;64502;59.976;30.316;2023-07-28T00:25:51;100039.19;;;14.57;76.47
75855;BME280;64502;59.976;30.316;2023-07-28T00:28:16;100040.41;;;14.53;75.68
75855;BME280;64502;59.976;30.316;2023-07-28T00:30:42;100049.44;;;14.50;75.99
75855;BME280;64502;59.976;30.316;2023-07-28T00:33:07;100040.06;;;14.46;76.32
75855;BME280;64502;59.976;30.316;2023-07-28T00:35:32;100045.38;;;14.46;75.84
75855;BME280;64502;59.976;30.316;2023-07-28T00:37:58;100025.09;;;14.45;75.99
75855;BME280;64502;59.976;30.316;2023-07-28T00:40:23;100023.03;;;14.49;75.53
75855;BME280;64502;59.976;30.316;2023-07-28T00:42:49;100014.22;;;14.48;76.51
75855;BME280;64502;59.976;30.316;2023-07-28T00:45:15;100013.94;;;14.51;76.13
75855;BME280;64502;59.976;30.316;2023-07-28T00:47:40;100019.25;;;14.51;75.75
75855;BME280;64502;59.976;30.316;2023-07-28T00:50:08;100008.56;;;14.53;75.73
75855;BME280;64502;59.976;30.316;2023-07-28T00:52:34;99997.81;;;14.54;76.38
75855;BME280;64502;59.976;30.316;2023-07-28T00:55:00;100002.25;;;14.54;75.82
75855;BME280;64502;59.976;30.316;2023-07-28T00:57:26;99995.28;;;14.53;75.39
75855;BME280;64502;59.976;30.316;2023-07-28T00:59:51;99997.81;;;14.54;75.88
75855;BME280;64502;59.976;30.316;2023-07-28T01:02:18;99989.84;;;14.54;75.08
75855;BME280;64502;59.976;30.316;2023-07-28T01:04:44;99990.53;;;14.56;75.74
75855;BME280;64502;59.976;30.316;2023-07-28T01:09:47;99980.25;;;14.63;75.06
75855;BME280;64502;59.976;30.316;2023-07-28T01:12:15;99982.25;;;14.71;75.30
75855;BME280;64502;59.976;30.316;2023-07-28T01:14:41;99981.25;;;14.72;74.65
75855;BME280;64502;59.976;30.316;2023-07-28T01:17:06;99984.47;;;14.75;75.38
75855;BME280;64502;59.976;30.316;2023-07-28T01:19:32;99979.03;;;14.77;74.99
75855;BME280;64502;59.976;30.316;2023-07-28T01:27:45;99979.19;;;14.85;74.76
75855;BME280;64502;59.976;30.316;2023-07-28T01:30:11;99977.09;;;14.88;74.97
75855;BME280;64502;59.976;30.316;2023-07-28T01:32:36;99976.56;;;14.95;74.33
75855;BME280;64502;59.976;30.316;2023-07-28T01:35:03;99976.03;;;15.01;74.06
75855;BME280;64502;59.976;30.316;2023-07-28T01:37:29;99972.13;;;15.05;73.83
75855;BME280;64502;59.976;30.316;2023-07-28T01:39:54;99969.06;;;15.09;74.00
75855;BME280;64502;59.976;30.316;2023-07-28T01:42:20;99968.50;;;15.16;74.26
75855;BME280;64502;59.976;30.316;2023-07-28T01:44:45;99965.44;;;15.20;73.19
75855;BME280;64502;59.976;30.316;2023-07-28T01:47:11;99963.22;;;15.25;71.87
75855;BME280;64502;59.976;30.316;2023-07-28T01:49:36;99955.81;;;15.29;72.08
75855;BME280;64502;59.976;30.316;2023-07-28T01:52:02;99958.19;;;15.32;71.55
75855;BME280;64502;59.976;30.316;2023-07-28T01:54:28;99952.88;;;15.32;72.13
75855;BME280;64502;59.976;30.316;2023-07-28T01:56:53;99957.63;;;15.28;70.79
75855;BME280;64502;59.976;30.316;2023-07-28T01:59:21;99965.44;;;15.30;71.84
75855;BME280;64502;59.976;30.316;2023-07-28T02:01:47;99968.25;;;15.28;71.86
75855;BME280;64502;59.976;30.316;2023-07-28T02:04:12;99972.88;;;15.26;72.52
75855;BME280;64502;59.976;30.316;2023-07-28T02:06:38;99953.72;;;15.23;72.36
75855;BME280;64502;59.976;30.316;2023-07-28T02:09:04;99943.47;;;15.18;73.37
75855;BME280;64502;59.976;30.316;2023-07-28T02:11:29;99940.38;;;15.13;73.91
75855;BME280;64502;59.976;30.316;2023-07-28T02:13:55;99947.81;;;15.09;73.96
75855;BME280;64502;59.976;30.316;2023-07-28T02:16:20;99951.56;;;15.07;74.80
75855;BME280;64502;59.976;30.316;2023-07-28T02:18:45;99953.69;;;15.03;75.37
75855;BME280;64502;59.976;30.316;2023-07-28T02:21:11;99955.06;;;14.98;74.74
75855;BME280;64502;59.976;30.316;2023-07-28T02:23:36;99966.09;;;14.93;75.34
75855;BME280;64502;59.976;30.316;2023-07-28T02:26:02;99961.16;;;14.88;75.09
75855;BME280;64502;59.976;30.316;2023-07-28T02:28:27;99965.09;;;14.84;76.03
75855;BME280;64502;59.976;30.316;2023-07-28T02:30:53;99959.06;;;14.82;76.17
75855;BME280;64502;59.976;30.316;2023-07-28T02:33:18;99950.53;;;14.79;76.49
75855;BME280;64502;59.976;30.316;2023-07-28T02:35:44;99938.38;;;14.76;77.52
75855;BME280;64502;59.976;30.316;2023-07-28T02:38:10;99936.53;;;14.77;77.40
75855;BME280;64502;59.976;30.316;2023-07-28T02:40:35;99928.56;;;14.77;78.93
75855;BME280;64502;59.976;30.316;2023-07-28T02:43:00;99916.13;;;14.77;78.34
75855;BME280;64502;59.976;30.316;2023-07-28T02:45:26;99919.50;;;14.79;79.13
75855;BME280;64502;59.976;30.316;2023-07-28T02:47:51;99915.16;;;14.78;78.63
75855;BME280;64502;59.976;30.316;2023-07-28T02:50:16;99910.53;;;14.80;78.97
75855;BME280;64502;59.976;30.316;2023-07-28T02:52:42;99908.59;;;14.82;78.86
75855;BME280;64502;59.976;30.316;2023-07-28T02:55:08;99916.41;;;14.84;79.68
75855;BME280;64502;59.976;30.316;2023-07-28T02:57:33;99907.63;;;14.83;79.33
75855;BME280;64502;59.976;30.316;2023-07-28T02:59:59;99911.25;;;14.82;79.88
75855;BME280;64502;59.976;30.316;2023-07-28T03:02:24;99919.78;;;14.76;79.81
75855;BME280;64502;59.976;30.316;2023-07-28T03:04:52;99914.84;;;14.72;79.44
75855;BME280;64502;59.976;30.316;2023-07-28T03:07:17;99917.91;;;14.67;79.84
75855;BME280;64502;59.976;30.316;2023-07-28T03:09:43;99916.25;;;14.66;80.82
75855;BME280;64502;59.976;30.316;2023-07-28T03:12:08;99908.00;;;14.69;81.16
75855;BME280;64502;59.976;30.316;2023-07-28T03:14:34;99907.72;;;14.72;81.73
75855;BME280;64502;59.976;30.316;2023-07-28T03:16:59;99909.28;;;14.75;82.03
75855;BME280;64502;59.976;30.316;2023-07-28T03:19:25;99900.88;;;14.70;81.60
75855;BME280;64502;59.976;30.316;2023-07-28T03:21:55;99900.97;;;14.58;82.14
75855;BME280;64502;59.976;30.316;2023-07-28T03:24:22;99903.28;;;14.42;82.67
75855;BME280;64502;59.976;30.316;2023-07-28T03:26:48;99894.56;;;14.30;84.36
75855;BME280;64502;59.976;30.316;2023-07-28T03:29:13;99893.56;;;14.21;84.27
75855;BME280;64502;59.976;30.316;2023-07-28T03:31:46;99887.94;;;14.15;83.20
75855;BME280;64502;59.976;30.316;2023-07-28T03:34:11;99877.72;;;14.10;84.82
75855;BME280;64502;59.976;30.316;2023-07-28T03:36:37;99886.66;;;14.09;85.50
75855;BME280;64502;59.976;30.316;2023-07-28T03:39:02;99873.38;;;14.09;85.49
75855;BME280;64502;59.976;30.316;2023-07-28T03:41:28;99884.00;;;14.09;84.78
75855;BME280;64502;59.976;30.316;2023-07-28T03:44:02;99882.78;;;14.13;85.34
75855;BME280;64502;59.976;30.316;2023-07-28T03:46:28;99863.78;;;14.18;85.66
75855;BME280;64502;59.976;30.316;2023-07-28T03:48:53;99852.78;;;14.23;86.28
75855;BME280;64502;59.976;30.316;2023-07-28T03:51:18;99855.88;;;14.28;86.58
75855;BME280;64502;59.976;30.316;2023-07-28T03:53:44;99859.41;;;14.38;86.90
75855;BME280;64502;59.976;30.316;2023-07-28T03:56:12;99855.09;;;14.47;85.56
75855;BME280;64502;59.976;30.316;2023-07-28T03:58:38;99853.00;;;14.50;85.16
75855;BME280;64502;59.976;30.316;2023-07-28T04:01:06;99858.06;;;14.53;85.02
75855;BME280;64502;59.976;30.316;2023-07-28T04:03:32;99855.72;;;14.60;85.51
75855;BME280;64502;59.976;30.316;2023-07-28T04:05:58;99858.81;;;14.65;85.60
75855;BME280;64502;59.976;30.316;2023-07-28T04:08:31;99857.44;;;14.71;85.71
75855;BME280;64502;59.976;30.316;2023-07-28T04:10:56;99854.22;;;14.77;85.80
75855;BME280;64502;59.976;30.316;2023-07-28T04:13:22;99847.78;;;14.79;85.05
75855;BME280;64502;59.976;30.316;2023-07-28T04:15:49;99846.53;;;14.83;84.17
75855;BME280;64502;59.976;30.316;2023-07-28T04:18:15;99841.22;;;14.83;84.69
75855;BME280;64502;59.976;30.316;2023-07-28T04:20:40;99829.34;;;14.87;84.52
75855;BME280;64502;59.976;30.316;2023-07-28T04:23:06;99833.66;;;14.88;84.52
75855;BME280;64502;59.976;30.316;2023-07-28T04:25:31;99842.19;;;14.92;84.03
75855;BME280;64502;59.976;30.316;2023-07-28T04:27:57;99829.34;;;14.87;83.77
75855;BME280;64502;59.976;30.316;2023-07-28T04:30:25;99834.66;;;14.87;83.12
75855;BME280;64502;59.976;30.316;2023-07-28T04:32:50;99829.75;;;14.83;83.35
75855;BME280;64502;59.976;30.316;2023-07-28T04:35:15;99827.09;;;14.83;83.62
75855;BME280;64502;59.976;30.316;2023-07-28T04:37:41;99820.97;;;14.82;83.54
75855;BME280;64502;59.976;30.316;2023-07-28T04:40:07;99820.97;;;14.82;83.58
75855;BME280;64502;59.976;30.316;2023-07-28T04:42:33;99820.97;;;14.82;83.06
75855;BME280;64502;59.976;30.316;2023-07-28T04:44:59;99825.56;;;14.80;84.22
75855;BME280;64502;59.976;30.316;2023-07-28T04:47:27;99831.59;;;14.82;83.20
75855;BME280;64502;59.976;30.316;2023-07-28T04:49:53;99821.94;;;14.81;81.75
75855;BME280;64502;59.976;30.316;2023-07-28T04:52:18;99814.38;;;14.77;81.89
75855;BME280;64502;59.976;30.316;2023-07-28T04:54:43;99811.56;;;14.69;83.10
75855;BME280;64502;59.976;30.316;2023-07-28T04:57:12;99809.88;;;14.58;82.07
75855;BME280;64502;59.976;30.316;2023-07-28T04:59:37;99806.59;;;14.44;82.40
75855;BME280;64502;59.976;30.316;2023-07-28T05:02:03;99802.53;;;14.31;82.92
75855;BME280;64502;59.976;30.316;2023-07-28T05:04:29;99809.75;;;14.19;83.52
75855;BME280;64502;59.976;30.316;2023-07-28T05:06:57;99815.03;;;14.09;84.23
75855;BME280;64502;59.976;30.316;2023-07-28T05:09:22;99810.09;;;14.05;84.42
75855;BME280;64502;59.976;30.316;2023-07-28T05:11:50;99808.56;;;14.02;85.52
75855;BME280;64502;59.976;30.316;2023-07-28T05:14:16;99798.38;;;13.97;85.14
75855;BME280;64502;59.976;30.316;2023-07-28T05:16:41;99796.94;;;13.93;85.39
75855;BME280;64502;59.976;30.316;2023-07-28T05:19:07;99807.25;;;13.87;82.04
75855;BME280;64502;59.976;30.316;2023-07-28T05:21:35;99792.56;;;13.83;83.87
75855;BME280;64502;59.976;30.316;2023-07-28T05:24:00;99797.56;;;13.76;84.17
75855;BME280;64502;59.976;30.316;2023-07-28T05:26:26;99796.03;;;13.73;84.98
75855;BME280;64502;59.976;30.316;2023-07-28T05:28:51;99803.16;;;13.73;85.38
75855;BME280;64502;59.976;30.316;2023-07-28T05:31:17;99798.69;;;13.73;86.28
75855;BME280;64502;59.976;30.316;2023-07-28T05:33:43;99792.66;;;13.71;84.90
75855;BME280;64502;59.976;30.316;2023-07-28T05:36:08;99798.13;;;13.70;86.09
75855;BME280;64502;59.976;30.316;2023-07-28T05:38:33;99798.38;;;13.67;85.80
75855;BME280;64502;59.976;30.316;2023-07-28T05:41:00;99801.16;;;13.65;85.49
75855;BME280;64502;59.976;30.316;2023-07-28T05:43:31;99795.59;;;13.68;87.41
75855;BME280;64502;59.976;30.316;2023-07-28T05:45:58;99792.94;;;13.68;86.77
75855;BME280;64502;59.976;30.316;2023-07-28T05:48:24;99784.44;;;13.74;87.96
75855;BME280;64502;59.976;30.316;2023-07-28T05:50:49;99787.41;;;13.81;87.14
75855;BME280;64502;59.976;30.316;2023-07-28T05:53:16;99783.84;;;13.92;88.39
75855;BME280;64502;59.976;30.316;2023-07-28T05:55:42;99784.69;;;14.02;87.98
75855;BME280;64502;59.976;30.316;2023-07-28T05:58:07;99777.06;;;14.09;87.62
75855;BME280;64502;59.976;30.316;2023-07-28T06:00:32;99769.53;;;14.14;86.62
75855;BME280;64502;59.976;30.316;2023-07-28T06:03:00;99776.94;;;14.20;87.71
75855;BME280;64502;59.976;30.316;2023-07-28T06:05:25;99771.09;;;14.26;87.73
75855;BME280;64502;59.976;30.316;2023-07-28T06:07:51;99773.63;;;14.28;86.66
75855;BME280;64502;59.976;30.316;2023-07-28T06:10:17;99772.34;;;14.32;87.32
75855;BME280;64502;59.976;30.316;2023-07-28T06:12:43;99766.91;;;14.33;87.09
75855;BME280;64502;59.976;30.316;2023-07-28T06:15:08;99774.59;;;14.36;86.42
75855;BME280;64502;59.976;30.316;2023-07-28T06:17:34;99782.28;;;14.39;86.38
75855;BME280;64502;59.976;30.316;2023-07-28T06:19:59;99770.84;;;14.39;87.08
75855;BME280;64502;59.976;30.316;2023-07-28T06:22:25;99771.13;;;14.36;86.03
75855;BME280;64502;59.976;30.316;2023-07-28T06:24:50;99773.91;;;14.34;85.45
75855;BME280;64502;59.976;30.316;2023-07-28T06:27:16;99781.28;;;14.31;85.30
75855;BME280;64502;59.976;30.316;2023-07-28T06:29:41;99775.44;;;14.27;85.75
75855;BME280;64502;59.976;30.316;2023-07-28T06:32:07;99771.25;;;14.25;85.55
75855;BME280;64502;59.976;30.316;2023-07-28T06:34:33;99764.38;;;14.22;86.82
75855;BME280;64502;59.976;30.316;2023-07-28T06:36:58;99761.13;;;14.18;86.63
75855;BME280;64502;59.976;30.316;2023-07-28T06:39:24;99759.63;;;14.16;86.17
75855;BME280;64502;59.976;30.316;2023-07-28T06:41:52;99749.84;;;14.16;86.59
75855;BME280;64502;59.976;30.316;2023-07-28T06:44:17;99749.13;;;14.14;87.25
75855;BME280;64502;59.976;30.316;2023-07-28T06:46:43;99742.28;;;14.12;88.06
75855;BME280;64502;59.976;30.316;2023-07-28T06:49:08;99744.53;;;14.16;87.04
75855;BME280;64502;59.976;30.316;2023-07-28T06:51:34;99749.56;;;14.19;88.21
75855;BME280;64502;59.976;30.316;2023-07-28T06:54:04;99749.41;;;14.21;87.28
75855;BME280;64502;59.976;30.316;2023-07-28T06:56:30;99737.69;;;14.24;87.46
75855;BME280;64502;59.976;30.316;2023-07-28T06:58:55;99732.28;;;14.25;87.49
75855;BME280;64502;59.976;30.316;2023-07-28T07:01:21;99737.28;;;14.28;87.19
75855;BME280;64502;59.976;30.316;2023-07-28T07:03:47;99722.78;;;14.32;88.44
75855;BME280;64502;59.976;30.316;2023-07-28T07:06:12;99721.53;;;14.36;88.51
75855;BME280;64502;59.976;30.316;2023-07-28T07:08:41;99729.09;;;14.41;88.08
75855;BME280;64502;59.976;30.316;2023-07-28T07:11:06;99731.19;;;14.47;88.47
75855;BME280;64502;59.976;30.316;2023-07-28T07:13:34;99738.84;;;14.50;88.49
75855;BME280;64502;59.976;30.316;2023-07-28T07:15:59;99747.56;;;14.52;87.98
75855;BME280;64502;59.976;30.316;2023-07-28T07:18:26;99732.84;;;14.48;88.13
75855;BME280;64502;59.976;30.316;2023-07-28T07:20:51;99718.19;;;14.44;88.03
75855;BME280;64502;59.976;30.316;2023-07-28T07:23:17;99706.56;;;14.45;89.30
75855;BME280;64502;59.976;30.316;2023-07-28T07:25:42;99712.88;;;14.44;87.82
75855;BME280;64502;59.976;30.316;2023-07-28T07:28:07;99712.03;;;14.43;88.46
75855;BME280;64502;59.976;30.316;2023-07-28T07:30:35;99699.72;;;14.42;88.30
75855;BME280;64502;59.976;30.316;2023-07-28T07:33:08;99705.47;;;14.48;88.80
75855;BME280;64502;59.976;30.316;2023-07-28T07:35:37;99703.28;;;14.53;88.50
75855;BME280;64502;59.976;30.316;2023-07-28T07:38:04;99718.78;;;14.57;88.01
75855;BME280;64502;59.976;30.316;2023-07-28T07:40:34;99715.13;;;14.58;87.56
75855;BME280;64502;59.976;30.316;2023-07-28T07:42:59;99703.53;;;14.59;88.35
75855;BME280;64502;59.976;30.316;2023-07-28T07:45:25;99704.25;;;14.61;88.49
75855;BME280;64502;59.976;30.316;2023-07-28T07:47:50;99706.59;;;14.64;88.39
75855;BME280;64502;59.976;30.316;2023-07-28T07:50:16;99707.47;;;14.65;88.46
75855;BME280;64502;59.976;30.316;2023-07-28T07:52:41;99704.81;;;14.65;88.40
75855;BME280;64502;59.976;30.316;2023-07-28T07:55:09;99707.47;;;14.65;88.39
75855;BME280;64502;59.976;30.316;2023-07-28T07:57:36;99705.22;;;14.60;87.85
75855;BME280;64502;59.976;30.316;2023-07-28T08:00:01;99703.00;;;14.56;88.65
75855;BME280;64502;59.976;30.316;2023-07-28T08:02:27;99703.16;;;14.54;88.99
75855;BME280;64502;59.976;30.316;2023-07-28T08:04:52;99708.81;;;14.50;86.83
75855;BME280;64502;59.976;30.316;2023-07-28T08:07:20;99717.47;;;14.42;85.93
75855;BME280;64502;59.976;30.316;2023-07-28T08:09:46;99718.03;;;14.36;86.54
75855;BME280;64502;59.976;30.316;2023-07-28T08:12:12;99715.22;;;14.28;86.85
75855;BME280;64502;59.976;30.316;2023-07-28T08:14:38;99711.03;;;14.25;87.31
75855;BME280;64502;59.976;30.316;2023-07-28T08:17:04;99725.41;;;14.23;87.61
75855;BME280;64502;59.976;30.316;2023-07-28T08:19:29;99712.56;;;14.18;86.63
75855;BME280;64502;59.976;30.316;2023-07-28T08:21:55;99706.41;;;14.17;87.58
75855;BME280;64502;59.976;30.316;2023-07-28T08:24:20;99708.94;;;14.19;88.14
75855;BME280;64502;59.976;30.316;2023-07-28T08:26:46;99704.31;;;14.21;87.58
75855;BME280;64502;59.976;30.316;2023-07-28T08:29:11;99705.72;;;14.25;88.31
75855;BME280;64502;59.976;30.316;2023-07-28T08:31:36;99705.44;;;14.28;88.59
75855;BME280;64502;59.976;30.316;2023-07-28T08:34:02;99708.94;;;14.29;86.39
75855;BME280;64502;59.976;30.316;2023-07-28T08:36:28;99704.63;;;14.28;87.06
75855;BME280;64502;59.976;30.316;2023-07-28T08:38:53;99713.69;;;14.25;85.44
75855;BME280;64502;59.976;30.316;2023-07-28T08:41:19;99706.13;;;14.20;84.35
75855;BME280;64502;59.976;30.316;2023-07-28T08:43:44;99708.91;;;14.09;83.63
75855;BME280;64502;59.976;30.316;2023-07-28T08:46:10;99721.75;;;14.04;83.81
75855;BME280;64502;59.976;30.316;2023-07-28T08:48:36;99723.41;;;13.95;82.80
75855;BME280;64502;59.976;30.316;2023-07-28T08:51:02;99713.72;;;13.85;83.73
75855;BME280;64502;59.976;30.316;2023-07-28T08:53:29;99721.41;;;13.78;84.55
75855;BME280;64502;59.976;30.316;2023-07-28T08:55:55;99731.84;;;13.70;85.06
75855;BME280;64502;59.976;30.316;2023-07-28T08:58:22;99728.47;;;13.68;84.79
75855;BME280;64502;59.976;30.316;2023-07-28T09:00:48;99718.97;;;13.65;85.83
75855;BME280;64502;59.976;30.316;2023-07-28T09:03:15;99721.75;;;13.64;84.39
75855;BME280;64502;59.976;30.316;2023-07-28T09:05:45;99723.13;;;13.58;85.08
75855;BME280;64502;59.976;30.316;2023-07-28T09:08:16;99731.22;;;13.57;85.00
75855;BME280;64502;59.976;30.316;2023-07-28T09:13:11;99726.56;;;13.49;83.24
75855;BME280;64502;59.976;30.316;2023-07-28T09:15:37;99722.66;;;13.43;85.20
75855;BME280;64502;59.976;30.316;2023-07-28T09:18:03;99725.84;;;13.47;84.98
75855;BME280;64502;59.976;30.316;2023-07-28T09:20:36;99733.81;;;13.47;83.13
75855;BME280;64502;59.976;30.316;2023-07-28T09:23:03;99724.91;;;13.48;84.08
75855;BME280;64502;59.976;30.316;2023-07-28T09:25:31;99722.94;;;13.50;83.50
75855;BME280;64502;59.976;30.316;2023-07-28T09:27:57;99729.94;;;13.51;82.45
75855;BME280;64502;59.976;30.316;2023-07-28T09:30:24;99717.25;;;13.54;84.02
75855;BME280;64502;59.976;30.316;2023-07-28T09:32:54;99724.16;;;13.67;84.52
75855;BME280;64502;59.976;30.316;2023-07-28T09:35:21;99727.50;;;13.69;81.68
75855;BME280;64502;59.976;30.316;2023-07-28T09:37:49;99725.28;;;13.74;82.35
75855;BME280;64502;59.976;30.316;2023-07-28T09:40:17;99732.69;;;13.80;81.88
75855;BME280;64502;59.976;30.316;2023-07-28T09:42:44;99716.66;;;13.82;82.58
75855;BME280;64502;59.976;30.316;2023-07-28T09:45:15;99714.72;;;13.84;81.69
75855;BME280;64502;59.976;30.316;2023-07-28T09:47:44;99715.44;;;13.95;82.07
75855;BME280;64502;59.976;30.316;2023-07-28T09:50:10;99718.97;;;14.06;83.39
75855;BME280;64502;59.976;30.316;2023-07-28T09:52:43;99711.31;;;14.22;81.84
75855;BME280;64502;59.976;30.316;2023-07-28T09:55:11;99712.03;;;14.34;81.66
75855;BME280;64502;59.976;30.316;2023-07-28T09:57:44;99705.03;;;14.42;80.55
75855;BME280;64502;59.976;30.316;2023-07-28T10:00:12;99707.75;;;14.52;81.51
75855;BME280;64502;59.976;30.316;2023-07-28T10:02:38;99703.97;;;14.64;80.11
75855;BME280;64502;59.976;30.316;2023-07-28T10:05:06;99705.50;;;14.77;80.73
75855;BME280;64502;59.976;30.316;2023-07-28T10:07:34;99721.84;;;14.92;80.09
75855;BME280;64502;59.976;30.316;2023-07-28T10:10:03;99701.53;;;15.10;80.61
75855;BME280;64502;59.976;30.316;2023-07-28T10:12:39;99701.78;;;15.26;78.67
75855;BME280;64502;59.976;30.316;2023-07-28T10:15:07;99701.75;;;15.36;80.65
75855;BME280;64502;59.976;30.316;2023-07-28T10:17:34;99707.13;;;15.54;81.37
75855;BME280;64502;59.976;30.316;2023-07-28T10:20:02;99707.94;;;15.64;79.80
75855;BME280;64502;59.976;30.316;2023-07-28T10:22:43;99712.25;;;15.75;79.36
75855;BME280;64502;59.976;30.316;2023-07-28T10:25:08;99721.31;;;15.82;78.78
75855;BME280;64502;59.976;30.316;2023-07-28T10:27:43;99728.06;;;15.76;80.16
75855;BME280;64502;59.976;30.316;2023-07-28T10:30:11;99733.53;;;15.75;80.23
75855;BME280;64502;59.976;30.316;2023-07-28T10:32:39;99724.03;;;15.72;80.53
75855;BME280;64502;59.976;30.316;2023-07-28T10:35:25;99738.47;;;15.70;78.70
75855;BME280;64502;59.976;30.316;2023-07-28T10:37:53;99730.47;;;15.60;79.49
75855;BME280;64502;59.976;30.316;2023-07-28T10:40:28;99732.19;;;15.51;77.42
75855;BME280;64502;59.976;30.316;2023-07-28T10:42:58;99745.06;;;15.46;79.30
75855;BME280;64502;59.976;30.316;2023-07-28T10:45:28;99735.72;;;15.42;79.77
75855;BME280;64502;59.976;30.316;2023-07-28T10:47:55;99735.31;;;15.37;80.22
75855;BME280;64502;59.976;30.316;2023-07-28T10:50:23;99737.38;;;15.43;79.65
75855;BME280;64502;59.976;30.316;2023-07-28T10:52:50;99730.25;;;15.44;80.91
75855;BME280;64502;59.976;30.316;2023-07-28T10:55:21;99727.16;;;15.48;80.79
75855;BME280;64502;59.976;30.316;2023-07-28T10:57:48;99725.34;;;15.49;80.90
75855;BME280;64502;59.976;30.316;2023-07-28T11:00:19;99724.66;;;15.47;80.70
75855;BME280;64502;59.976;30.316;2023-07-28T11:02:53;99727.31;;;15.47;80.11
75855;BME280;64502;59.976;30.316;2023-07-28T11:05:30;99722.28;;;15.44;80.56
75855;BME280;64502;59.976;30.316;2023-07-28T11:08:00;99723.81;;;15.46;80.58
75855;BME280;64502;59.976;30.316;2023-07-28T11:10:30;99721.16;;;15.46;81.81
75855;BME280;64502;59.976;30.316;2023-07-28T11:12:58;99726.56;;;15.54;80.82
75855;BME280;64502;59.976;30.316;2023-07-28T11:15:24;99719.09;;;15.68;80.51
75855;BME280;64502;59.976;30.316;2023-07-28T11:17:51;99708.00;;;15.82;80.84
75855;BME280;64502;59.976;30.316;2023-07-28T11:22:45;99719.81;;;16.25;79.34
75855;BME280;64502;59.976;30.316;2023-07-28T11:25:11;99703.47;;;16.56;78.40
75855;BME280;64502;59.976;30.316;2023-07-28T11:27:37;99710.63;;;16.73;77.13
75855;BME280;64502;59.976;30.316;2023-07-28T11:30:04;99705.16;;;16.93;77.50
75855;BME280;64502;59.976;30.316;2023-07-28T11:32:31;99700.13;;;17.16;76.54
75855;BME280;64502;59.976;30.316;2023-07-28T11:35:07;99709.44;;;17.38;73.43
75855;BME280;64502;59.976;30.316;2023-07-28T11:37:38;99706.53;;;17.49;74.58
75855;BME280;64502;59.976;30.316;2023-07-28T11:40:06;99713.28;;;17.69;74.25
75855;BME280;64502;59.976;30.316;2023-07-28T11:42:44;99718.72;;;17.86;74.69
75855;BME280;64502;59.976;30.316;2023-07-28T11:45:12;99723.44;;;18.00;72.50
75855;BME280;64502;59.976;30.316;2023-07-28T11:47:38;99725.63;;;18.05;73.78
75855;BME280;64502;59.976;30.316;2023-07-28T11:50:04;99738.34;;;18.19;73.59
75855;BME280;64502;59.976;30.316;2023-07-28T11:52:34;99741.56;;;18.31;74.08
75855;BME280;64502;59.976;30.316;2023-07-28T11:55:01;99742.91;;;18.43;72.46
75855;BME280;64502;59.976;30.316;2023-07-28T11:57:29;99746.94;;;18.39;71.79
75855;BME280;64502;59.976;30.316;2023-07-28T11:59:59;99753.22;;;18.22;70.88
75855;BME280;64502;59.976;30.316;2023-07-28T12:02:26;99756.47;;;17.99;71.88
75855;BME280;64502;59.976;30.316;2023-07-28T12:04:51;99755.56;;;17.82;72.88
75855;BME280;64502;59.976;30.316;2023-07-28T12:07:27;99743.31;;;17.71;71.73
75855;BME280;64502;59.976;30.316;2023-07-28T12:09:53;99736.47;;;17.69;71.69
75855;BME280;64502;59.976;30.316;2023-07-28T12:12:22;99725.63;;;17.70;72.23
75855;BME280;64502;59.976;30.316;2023-07-28T12:14:48;99732.63;;;17.71;70.59
75855;BME280;64502;59.976;30.316;2023-07-28T12:17:20;99733.41;;;17.82;70.71
75855;BME280;64502;59.976;30.316;2023-07-28T12:20:00;99736.75;;;17.92;69.64
75855;BME280;64502;59.976;30.316;2023-07-28T12:22:26;99738.81;;;17.98;68.82
75855;BME280;64502;59.976;30.316;2023-07-28T12:24:53;99730.97;;;18.05;69.86
75855;BME280;64502;59.976;30.316;2023-07-28T12:27:18;99732.09;;;17.94;68.16
75855;BME280;64502;59.976;30.316;2023-07-28T12:29:46;99727.91;;;17.91;68.06
75855;BME280;64502;59.976;30.316;2023-07-28T12:32:11;99729.03;;;17.81;68.82
75855;BME280;64502;59.976;30.316;2023-07-28T12:34:37;99734.63;;;17.69;69.49
75855;BME280;64502;59.976;30.316;2023-07-28T12:37:02;99736.84;;;17.48;70.07
75855;BME280;64502;59.976;30.316;2023-07-28T12:39:28;99749.09;;;17.33;70.42
75855;BME280;64502;59.976;30.316;2023-07-28T12:41:54;99758.19;;;17.22;70.30
75855;BME280;64502;59.976;30.316;2023-07-28T12:44:20;99761.44;;;17.16;70.67
75855;BME280;64502;59.976;30.316;2023-07-28T12:46:46;99759.25;;;17.11;71.82
75855;BME280;64502;59.976;30.316;2023-07-28T12:49:11;99762.69;;;17.03;71.40
75855;BME280;64502;59.976;30.316;2023-07-28T12:51:37;99768.28;;;16.92;72.99
75855;BME280;64502;59.976;30.316;2023-07-28T12:54:02;99776.03;;;16.85;72.96
75855;BME280;64502;59.976;30.316;2023-07-28T12:56:27;99785.78;;;16.77;73.23
75855;BME280;64502;59.976;30.316;2023-07-28T12:58:53;99782.25;;;16.76;73.90
75855;BME280;64502;59.976;30.316;2023-07-28T13:01:18;99785.91;;;16.75;74.99